sensor_id;sensor_type;location;lat;lon;timestamp;P1;durP1;ratioP1;P2;durP2;ratioP2
17197;SDS011;8715;51.010;6.812;2023-02-26T00:00:23;757.93;;;719.63;;
17197;SDS011;8715;51.010;6.812;2023-02-26T00:02:48;748.90;;;711.90;;
17197;SDS011;8715;51.010;6.812;2023-02-26T00:05:14;746.43;;;710.07;;
17197;SDS011;8715;51.010;6.812;2023-02-26T00:07:40;762.00;;;723.85;;
17197;SDS011;8715;51.010;6.812;2023-02-26T00:10:06;753.00;;;716.55;;
17197;SDS011;8715;51.010;6.812;2023-02-26T00:12:32;755.38;;;718.67;;
17197;SDS011;8715;51.010;6.812;2023-02-26T00:14:57;762.03;;;723.67;;
17197;SDS011;8715;51.010;6.812;2023-02-26T00:20:00;748.65;;;712.67;;
17197;SDS011;8715;51.010;6.812;2023-02-26T00:22:25;759.75;;;722.75;;
17197;SDS011;8715;51.010;6.812;2023-02-26T00:24:51;755.83;;;718.60;;
17197;SDS011;8715;51.010;6.812;2023-02-26T00:27:16;753.13;;;716.53;;
17197;SDS011;8715;51.010;6.812;2023-02-26T00:29:42;757.20;;;720.03;;
17197;SDS011;8715;51.010;6.812;2023-02-26T00:32:07;750.88;;;714.50;;
17197;SDS011;8715;51.010;6.812;2023-02-26T00:34:33;753.53;;;717.10;;
17197;SDS011;8715;51.010;6.812;2023-02-26T00:42:07;748.53;;;712.50;;
17197;SDS011;8715;51.010;6.812;2023-02-26T00:44:33;762.80;;;724.70;;
17197;SDS011;8715;51.010;6.812;2023-02-26T00:49:40;764.45;;;726.15;;
17197;SDS011;8715;51.010;6.812;2023-02-26T00:55:03;754.22;;;717.60;;
17197;SDS011;8715;51.010;6.812;2023-02-26T00:57:28;779.50;;;736.75;;
17197;SDS011;8715;51.010;6.812;2023-02-26T00:59:53;739.83;;;704.70;;
17197;SDS011;8715;51.010;6.812;2023-02-26T01:02:18;736.57;;;701.80;;
17197;SDS011;8715;51.010;6.812;2023-02-26T01:04:44;748.07;;;712.90;;
17197;SDS011;8715;51.010;6.812;2023-02-26T01:07:10;746.97;;;712.53;;
17197;SDS011;8715;51.010;6.812;2023-02-26T01:09:36;742.27;;;707.50;;
17197;SDS011;8715;51.010;6.812;2023-02-26T01:12:08;734.05;;;700.30;;
17197;SDS011;8715;51.010;6.812;2023-02-26T01:14:35;788.28;;;744.90;;
17197;SDS011;8715;51.010;6.812;2023-02-26T01:19:54;746.47;;;711.10;;
17197;SDS011;8715;51.010;6.812;2023-02-26T01:24:48;743.80;;;709.10;;
17197;SDS011;8715;51.010;6.812;2023-02-26T01:27:16;735.67;;;701.33;;
17197;SDS011;8715;51.010;6.812;2023-02-26T01:29:41;744.53;;;709.80;;
17197;SDS011;8715;51.010;6.812;2023-02-26T01:34:55;737.65;;;703.75;;
17197;SDS011;8715;51.010;6.812;2023-02-26T01:37:32;748.10;;;713.00;;
17197;SDS011;8715;51.010;6.812;2023-02-26T01:42:28;740.75;;;705.90;;
17197;SDS011;8715;51.010;6.812;2023-02-26T01:45:10;757.90;;;720.25;;
17197;SDS011;8715;51.010;6.812;2023-02-26T01:50:41;754.60;;;718.03;;
17197;SDS011;8715;51.010;6.812;2023-02-26T01:55:44;762.50;;;724.53;;
17197;SDS011;8715;51.010;6.812;2023-02-26T01:58:13;770.83;;;731.17;;
17197;SDS011;8715;51.010;6.812;2023-02-26T02:00:38;762.83;;;723.93;;
17197;SDS011;8715;51.010;6.812;2023-02-26T02:03:03;776.37;;;734.13;;
17197;SDS011;8715;51.010;6.812;2023-02-26T02:05:33;773.07;;;732.73;;
17197;SDS011;8715;51.010;6.812;2023-02-26T02:07:59;778.63;;;737.22;;
17197;SDS011;8715;51.010;6.812;2023-02-26T02:10:25;773.67;;;734.03;;
17197;SDS011;8715;51.010;6.812;2023-02-26T02:12:54;768.47;;;729.83;;
17197;SDS011;8715;51.010;6.812;2023-02-26T02:15:41;781.67;;;740.85;;
17197;SDS011;8715;51.010;6.812;2023-02-26T02:18:20;775.53;;;735.53;;
17197;SDS011;8715;51.010;6.812;2023-02-26T02:23:36;771.55;;;731.88;;
17197;SDS011;8715;51.010;6.812;2023-02-26T02:33:35;768.87;;;729.83;;
17197;SDS011;8715;51.010;6.812;2023-02-26T02:36:05;752.17;;;715.15;;
17197;SDS011;8715;51.010;6.812;2023-02-26T02:38:32;785.13;;;745.55;;
17197;SDS011;8715;51.010;6.812;2023-02-26T02:41:12;755.90;;;719.10;;
17197;SDS011;8715;51.010;6.812;2023-02-26T02:43:39;750.53;;;714.28;;
17197;SDS011;8715;51.010;6.812;2023-02-26T02:46:10;778.10;;;736.60;;
17197;SDS011;8715;51.010;6.812;2023-02-26T02:48:42;775.38;;;733.58;;
17197;SDS011;8715;51.010;6.812;2023-02-26T02:51:09;768.05;;;728.78;;
17197;SDS011;8715;51.010;6.812;2023-02-26T02:53:40;759.33;;;721.13;;
17197;SDS011;8715;51.010;6.812;2023-02-26T02:56:29;767.28;;;728.22;;
17197;SDS011;8715;51.010;6.812;2023-02-26T02:59:05;777.38;;;735.30;;
17197;SDS011;8715;51.010;6.812;2023-02-26T03:01:30;784.90;;;742.58;;
17197;SDS011;8715;51.010;6.812;2023-02-26T03:06:26;784.83;;;742.33;;
17197;SDS011;8715;51.010;6.812;2023-02-26T03:08:51;728.22;;;695.17;;
17197;SDS011;8715;51.010;6.812;2023-02-26T03:11:17;728.75;;;695.22;;
17197;SDS011;8715;51.010;6.812;2023-02-26T03:13:42;729.30;;;696.20;;
17197;SDS011;8715;51.010;6.812;2023-02-26T03:16:24;725.95;;;692.95;;
17197;SDS011;8715;51.010;6.812;2023-02-26T03:21:28;728.05;;;695.30;;
17197;SDS011;8715;51.010;6.812;2023-02-26T03:26:46;728.75;;;694.85;;
17197;SDS011;8715;51.010;6.812;2023-02-26T03:29:15;717.10;;;684.67;;
17197;SDS011;8715;51.010;6.812;2023-02-26T03:31:57;726.55;;;693.35;;
17197;SDS011;8715;51.010;6.812;2023-02-26T03:36:53;712.63;;;681.03;;
17197;SDS011;8715;51.010;6.812;2023-02-26T03:39:22;715.25;;;683.65;;
17197;SDS011;8715;51.010;6.812;2023-02-26T03:41:54;725.53;;;693.00;;
17197;SDS011;8715;51.010;6.812;2023-02-26T03:44:31;707.88;;;676.63;;
17197;SDS011;8715;51.010;6.812;2023-02-26T03:46:58;729.30;;;697.22;;
17197;SDS011;8715;51.010;6.812;2023-02-26T03:49:35;706.05;;;675.10;;
17197;SDS011;8715;51.010;6.812;2023-02-26T03:52:02;710.75;;;679.83;;
17197;SDS011;8715;51.010;6.812;2023-02-26T03:54:32;712.22;;;680.30;;
17197;SDS011;8715;51.010;6.812;2023-02-26T03:56:58;704.38;;;673.35;;
17197;SDS011;8715;51.010;6.812;2023-02-26T03:59:23;707.10;;;676.20;;
17197;SDS011;8715;51.010;6.812;2023-02-26T04:02:10;709.63;;;677.87;;
17197;SDS011;8715;51.010;6.812;2023-02-26T04:04:38;705.35;;;674.65;;
17197;SDS011;8715;51.010;6.812;2023-02-26T04:07:06;709.10;;;677.90;;
17197;SDS011;8715;51.010;6.812;2023-02-26T04:09:32;723.00;;;690.03;;
17197;SDS011;8715;51.010;6.812;2023-02-26T04:11:57;721.07;;;689.07;;
17197;SDS011;8715;51.010;6.812;2023-02-26T04:14:23;714.05;;;681.95;;
17197;SDS011;8715;51.010;6.812;2023-02-26T04:16:48;717.57;;;685.20;;
17197;SDS011;8715;51.010;6.812;2023-02-26T04:19:13;715.40;;;683.70;;
17197;SDS011;8715;51.010;6.812;2023-02-26T04:21:38;712.20;;;681.03;;
17197;SDS011;8715;51.010;6.812;2023-02-26T04:24:04;714.10;;;682.65;;
17197;SDS011;8715;51.010;6.812;2023-02-26T04:26:29;716.70;;;684.13;;
17197;SDS011;8715;51.010;6.812;2023-02-26T04:28:54;716.33;;;684.23;;
17197;SDS011;8715;51.010;6.812;2023-02-26T04:31:19;718.20;;;686.33;;
17197;SDS011;8715;51.010;6.812;2023-02-26T04:33:45;723.73;;;691.00;;
17197;SDS011;8715;51.010;6.812;2023-02-26T04:36:10;718.87;;;686.50;;
17197;SDS011;8715;51.010;6.812;2023-02-26T04:38:35;718.67;;;685.90;;
17197;SDS011;8715;51.010;6.812;2023-02-26T04:41:00;723.23;;;690.47;;
17197;SDS011;8715;51.010;6.812;2023-02-26T04:43:26;718.75;;;686.38;;
17197;SDS011;8715;51.010;6.812;2023-02-26T04:45:51;717.55;;;685.35;;
17197;SDS011;8715;51.010;6.812;2023-02-26T04:48:16;713.63;;;681.70;;
17197;SDS011;8715;51.010;6.812;2023-02-26T04:50:42;707.77;;;676.50;;
17197;SDS011;8715;51.010;6.812;2023-02-26T04:53:07;707.38;;;676.03;;
17197;SDS011;8715;51.010;6.812;2023-02-26T04:55:33;696.97;;;666.33;;
17197;SDS011;8715;51.010;6.812;2023-02-26T04:57:59;712.25;;;680.67;;
17197;SDS011;8715;51.010;6.812;2023-02-26T05:00:24;713.13;;;681.47;;
17197;SDS011;8715;51.010;6.812;2023-02-26T05:02:49;708.70;;;677.58;;
17197;SDS011;8715;51.010;6.812;2023-02-26T05:05:15;710.63;;;678.70;;
17197;SDS011;8715;51.010;6.812;2023-02-26T05:07:40;711.07;;;679.40;;
17197;SDS011;8715;51.010;6.812;2023-02-26T05:10:05;715.37;;;683.60;;
17197;SDS011;8715;51.010;6.812;2023-02-26T05:12:31;710.65;;;679.10;;
17197;SDS011;8715;51.010;6.812;2023-02-26T05:14:57;715.13;;;682.97;;
17197;SDS011;8715;51.010;6.812;2023-02-26T05:17:22;715.13;;;682.83;;
17197;SDS011;8715;51.010;6.812;2023-02-26T05:19:47;712.07;;;680.20;;
17197;SDS011;8715;51.010;6.812;2023-02-26T05:22:13;713.03;;;681.53;;
17197;SDS011;8715;51.010;6.812;2023-02-26T05:24:38;707.23;;;675.80;;
17197;SDS011;8715;51.010;6.812;2023-02-26T05:27:03;710.83;;;678.93;;
17197;SDS011;8715;51.010;6.812;2023-02-26T05:29:28;704.77;;;673.70;;
17197;SDS011;8715;51.010;6.812;2023-02-26T05:31:54;700.93;;;670.30;;
17197;SDS011;8715;51.010;6.812;2023-02-26T05:34:19;701.37;;;670.40;;
17197;SDS011;8715;51.010;6.812;2023-02-26T05:36:44;706.97;;;675.87;;
17197;SDS011;8715;51.010;6.812;2023-02-26T05:39:09;701.07;;;669.93;;
17197;SDS011;8715;51.010;6.812;2023-02-26T05:41:34;697.00;;;666.77;;
17197;SDS011;8715;51.010;6.812;2023-02-26T05:44:00;712.67;;;681.37;;
17197;SDS011;8715;51.010;6.812;2023-02-26T05:46:26;726.00;;;693.97;;
17197;SDS011;8715;51.010;6.812;2023-02-26T05:48:51;692.77;;;662.20;;
17197;SDS011;8715;51.010;6.812;2023-02-26T05:51:16;690.10;;;659.77;;
17197;SDS011;8715;51.010;6.812;2023-02-26T05:53:42;702.73;;;671.13;;
17197;SDS011;8715;51.010;6.812;2023-02-26T05:56:07;704.10;;;673.37;;
17197;SDS011;8715;51.010;6.812;2023-02-26T05:58:32;701.70;;;670.93;;
17197;SDS011;8715;51.010;6.812;2023-02-26T06:00:58;704.88;;;673.92;;
17197;SDS011;8715;51.010;6.812;2023-02-26T06:03:23;694.43;;;663.63;;
17197;SDS011;8715;51.010;6.812;2023-02-26T06:05:48;691.23;;;660.93;;
17197;SDS011;8715;51.010;6.812;2023-02-26T06:08:13;691.40;;;661.03;;
17197;SDS011;8715;51.010;6.812;2023-02-26T06:10:40;695.75;;;665.38;;
17197;SDS011;8715;51.010;6.812;2023-02-26T06:13:05;702.83;;;671.92;;
17197;SDS011;8715;51.010;6.812;2023-02-26T06:15:31;691.70;;;661.53;;
17197;SDS011;8715;51.010;6.812;2023-02-26T06:17:56;696.83;;;666.40;;
17197;SDS011;8715;51.010;6.812;2023-02-26T06:20:21;731.40;;;698.73;;
17197;SDS011;8715;51.010;6.812;2023-02-26T06:22:46;703.53;;;672.07;;
17197;SDS011;8715;51.010;6.812;2023-02-26T06:25:12;694.73;;;664.40;;
17197;SDS011;8715;51.010;6.812;2023-02-26T06:27:37;702.37;;;671.73;;
17197;SDS011;8715;51.010;6.812;2023-02-26T06:30:03;700.47;;;669.97;;
17197;SDS011;8715;51.010;6.812;2023-02-26T06:32:28;699.60;;;669.00;;
17197;SDS011;8715;51.010;6.812;2023-02-26T06:34:54;698.17;;;667.67;;
17197;SDS011;8715;51.010;6.812;2023-02-26T06:37:19;701.13;;;670.70;;
17197;SDS011;8715;51.010;6.812;2023-02-26T06:39:44;709.47;;;678.03;;
17197;SDS011;8715;51.010;6.812;2023-02-26T06:42:10;705.05;;;673.55;;
17197;SDS011;8715;51.010;6.812;2023-02-26T06:44:35;701.70;;;670.67;;
17197;SDS011;8715;51.010;6.812;2023-02-26T06:47:00;725.10;;;692.03;;
17197;SDS011;8715;51.010;6.812;2023-02-26T06:49:25;721.63;;;688.43;;
17197;SDS011;8715;51.010;6.812;2023-02-26T06:51:50;723.00;;;689.93;;
17197;SDS011;8715;51.010;6.812;2023-02-26T06:54:16;718.07;;;684.73;;
17197;SDS011;8715;51.010;6.812;2023-02-26T06:56:41;726.10;;;692.27;;
17197;SDS011;8715;51.010;6.812;2023-02-26T06:59:06;725.10;;;690.40;;
17197;SDS011;8715;51.010;6.812;2023-02-26T07:01:31;710.10;;;678.37;;
17197;SDS011;8715;51.010;6.812;2023-02-26T07:03:57;710.50;;;678.83;;
17197;SDS011;8715;51.010;6.812;2023-02-26T07:06:22;715.57;;;683.40;;
17197;SDS011;8715;51.010;6.812;2023-02-26T07:08:47;746.08;;;712.30;;
17197;SDS011;8715;51.010;6.812;2023-02-26T07:11:12;712.67;;;681.33;;
17197;SDS011;8715;51.010;6.812;2023-02-26T07:13:38;700.47;;;669.45;;
17197;SDS011;8715;51.010;6.812;2023-02-26T07:16:04;703.60;;;672.80;;
17197;SDS011;8715;51.010;6.812;2023-02-26T07:18:31;700.08;;;669.03;;
17197;SDS011;8715;51.010;6.812;2023-02-26T07:20:56;702.28;;;670.88;;
17197;SDS011;8715;51.010;6.812;2023-02-26T07:23:21;694.83;;;664.47;;
17197;SDS011;8715;51.010;6.812;2023-02-26T07:25:48;694.30;;;664.00;;
17197;SDS011;8715;51.010;6.812;2023-02-26T07:28:13;703.65;;;672.65;;
17197;SDS011;8715;51.010;6.812;2023-02-26T07:30:38;705.43;;;674.43;;
17197;SDS011;8715;51.010;6.812;2023-02-26T07:33:06;717.22;;;684.35;;
17197;SDS011;8715;51.010;6.812;2023-02-26T07:35:31;703.70;;;672.67;;
17197;SDS011;8715;51.010;6.812;2023-02-26T07:37:56;708.83;;;676.90;;
17197;SDS011;8715;51.010;6.812;2023-02-26T07:40:22;707.70;;;676.10;;
17197;SDS011;8715;51.010;6.812;2023-02-26T07:42:47;701.57;;;670.77;;
17197;SDS011;8715;51.010;6.812;2023-02-26T07:45:12;711.37;;;679.60;;
17197;SDS011;8715;51.010;6.812;2023-02-26T07:47:37;709.20;;;677.67;;
17197;SDS011;8715;51.010;6.812;2023-02-26T07:50:03;723.23;;;690.80;;
17197;SDS011;8715;51.010;6.812;2023-02-26T07:52:28;714.00;;;681.83;;
17197;SDS011;8715;51.010;6.812;2023-02-26T07:54:53;710.13;;;678.67;;
17197;SDS011;8715;51.010;6.812;2023-02-26T07:57:19;720.72;;;688.40;;
17197;SDS011;8715;51.010;6.812;2023-02-26T07:59:44;715.37;;;683.37;;
17197;SDS011;8715;51.010;6.812;2023-02-26T08:02:10;716.47;;;684.67;;
17197;SDS011;8715;51.010;6.812;2023-02-26T08:04:35;719.60;;;687.33;;
17197;SDS011;8715;51.010;6.812;2023-02-26T08:07:00;714.73;;;682.97;;
17197;SDS011;8715;51.010;6.812;2023-02-26T08:09:25;723.93;;;691.10;;
17197;SDS011;8715;51.010;6.812;2023-02-26T08:11:51;718.03;;;685.47;;
17197;SDS011;8715;51.010;6.812;2023-02-26T08:14:16;725.83;;;693.17;;
17197;SDS011;8715;51.010;6.812;2023-02-26T08:16:41;726.30;;;692.57;;
17197;SDS011;8715;51.010;6.812;2023-02-26T08:19:06;758.03;;;722.83;;
17197;SDS011;8715;51.010;6.812;2023-02-26T08:21:32;728.13;;;695.10;;
17197;SDS011;8715;51.010;6.812;2023-02-26T08:23:57;728.92;;;695.28;;
17197;SDS011;8715;51.010;6.812;2023-02-26T08:26:22;719.63;;;686.83;;
17197;SDS011;8715;51.010;6.812;2023-02-26T08:28:47;735.50;;;701.23;;
17197;SDS011;8715;51.010;6.812;2023-02-26T08:31:13;744.77;;;709.70;;
17197;SDS011;8715;51.010;6.812;2023-02-26T08:33:38;744.42;;;709.03;;
17197;SDS011;8715;51.010;6.812;2023-02-26T08:36:04;745.50;;;710.22;;
17197;SDS011;8715;51.010;6.812;2023-02-26T08:38:29;747.30;;;711.40;;
17197;SDS011;8715;51.010;6.812;2023-02-26T08:40:54;759.87;;;722.77;;
17197;SDS011;8715;51.010;6.812;2023-02-26T08:43:20;729.83;;;695.92;;
17197;SDS011;8715;51.010;6.812;2023-02-26T08:45:46;746.75;;;711.53;;
17197;SDS011;8715;51.010;6.812;2023-02-26T08:48:11;752.42;;;716.28;;
17197;SDS011;8715;51.010;6.812;2023-02-26T08:50:36;748.63;;;713.20;;
17197;SDS011;8715;51.010;6.812;2023-02-26T08:53:02;759.17;;;722.80;;
17197;SDS011;8715;51.010;6.812;2023-02-26T08:55:27;744.67;;;709.23;;
17197;SDS011;8715;51.010;6.812;2023-02-26T08:57:53;755.73;;;718.97;;
17197;SDS011;8715;51.010;6.812;2023-02-26T09:00:18;750.00;;;714.17;;
17197;SDS011;8715;51.010;6.812;2023-02-26T09:02:43;761.97;;;724.22;;
17197;SDS011;8715;51.010;6.812;2023-02-26T09:05:09;769.03;;;730.88;;
17197;SDS011;8715;51.010;6.812;2023-02-26T09:07:34;760.90;;;724.07;;
17197;SDS011;8715;51.010;6.812;2023-02-26T09:09:59;760.87;;;724.27;;
17197;SDS011;8715;51.010;6.812;2023-02-26T09:12:25;754.80;;;718.47;;
17197;SDS011;8715;51.010;6.812;2023-02-26T09:14:50;760.17;;;723.60;;
17197;SDS011;8715;51.010;6.812;2023-02-26T09:17:15;761.70;;;724.87;;
17197;SDS011;8715;51.010;6.812;2023-02-26T09:19:40;757.60;;;721.17;;
17197;SDS011;8715;51.010;6.812;2023-02-26T09:22:05;768.53;;;730.77;;
17197;SDS011;8715;51.010;6.812;2023-02-26T09:24:31;767.53;;;730.40;;
17197;SDS011;8715;51.010;6.812;2023-02-26T09:26:56;766.23;;;728.83;;
17197;SDS011;8715;51.010;6.812;2023-02-26T09:29:21;766.17;;;728.07;;
17197;SDS011;8715;51.010;6.812;2023-02-26T09:31:46;763.60;;;726.20;;
17197;SDS011;8715;51.010;6.812;2023-02-26T09:34:12;783.37;;;745.00;;
17197;SDS011;8715;51.010;6.812;2023-02-26T09:36:37;760.30;;;723.25;;
17197;SDS011;8715;51.010;6.812;2023-02-26T09:39:03;767.08;;;729.47;;
17197;SDS011;8715;51.010;6.812;2023-02-26T09:41:38;776.47;;;738.03;;
17197;SDS011;8715;51.010;6.812;2023-02-26T09:51:46;771.80;;;732.65;;
17197;SDS011;8715;51.010;6.812;2023-02-26T09:54:17;779.53;;;740.63;;
17197;SDS011;8715;51.010;6.812;2023-02-26T09:56:43;777.28;;;738.40;;
17197;SDS011;8715;51.010;6.812;2023-02-26T09:59:09;772.17;;;733.90;;
17197;SDS011;8715;51.010;6.812;2023-02-26T10:01:37;787.50;;;747.28;;
17197;SDS011;8715;51.010;6.812;2023-02-26T10:04:13;794.17;;;752.17;;
17197;SDS011;8715;51.010;6.812;2023-02-26T10:11:59;797.05;;;754.28;;
17197;SDS011;8715;51.010;6.812;2023-02-26T10:16:58;790.28;;;748.40;;
17197;SDS011;8715;51.010;6.812;2023-02-26T10:19:29;795.33;;;752.95;;
17197;SDS011;8715;51.010;6.812;2023-02-26T10:22:00;799.03;;;755.72;;
17197;SDS011;8715;51.010;6.812;2023-02-26T10:24:31;798.97;;;755.40;;
17197;SDS011;8715;51.010;6.812;2023-02-26T10:27:03;798.08;;;754.55;;
17197;SDS011;8715;51.010;6.812;2023-02-26T10:39:38;807.00;;;762.60;;
17197;SDS011;8715;51.010;6.812;2023-02-26T10:42:09;808.53;;;764.58;;
17197;SDS011;8715;51.010;6.812;2023-02-26T10:44:39;807.88;;;762.92;;
17197;SDS011;8715;51.010;6.812;2023-02-26T10:47:15;811.20;;;766.08;;
17197;SDS011;8715;51.010;6.812;2023-02-26T10:52:44;837.28;;;789.45;;
17197;SDS011;8715;51.010;6.812;2023-02-26T10:57:43;822.90;;;774.60;;
17197;SDS011;8715;51.010;6.812;2023-02-26T11:00:18;823.47;;;775.20;;
17197;SDS011;8715;51.010;6.812;2023-02-26T11:02:45;829.00;;;779.85;;
17197;SDS011;8715;51.010;6.812;2023-02-26T11:05:18;831.60;;;781.30;;
17197;SDS011;8715;51.010;6.812;2023-02-26T11:07:44;837.13;;;784.45;;
17197;SDS011;8715;51.010;6.812;2023-02-26T11:10:12;844.75;;;791.90;;
17197;SDS011;8715;51.010;6.812;2023-02-26T11:12:38;828.40;;;777.53;;
17197;SDS011;8715;51.010;6.812;2023-02-26T11:15:03;827.90;;;777.77;;
17197;SDS011;8715;51.010;6.812;2023-02-26T11:17:29;843.03;;;790.05;;
17197;SDS011;8715;51.010;6.812;2023-02-26T11:22:21;806.57;;;762.07;;
17197;SDS011;8715;51.010;6.812;2023-02-26T11:24:49;818.05;;;772.58;;
17197;SDS011;8715;51.010;6.812;2023-02-26T11:27:16;807.15;;;763.90;;
17197;SDS011;8715;51.010;6.812;2023-02-26T11:29:44;793.63;;;752.22;;
17197;SDS011;8715;51.010;6.812;2023-02-26T11:32:17;795.80;;;755.25;;
17197;SDS011;8715;51.010;6.812;2023-02-26T11:34:49;795.97;;;755.38;;
17197;SDS011;8715;51.010;6.812;2023-02-26T11:37:18;787.92;;;748.50;;
17197;SDS011;8715;51.010;6.812;2023-02-26T11:39:44;798.60;;;757.90;;
17197;SDS011;8715;51.010;6.812;2023-02-26T11:42:10;800.70;;;759.40;;
17197;SDS011;8715;51.010;6.812;2023-02-26T11:44:39;787.60;;;747.83;;
17197;SDS011;8715;51.010;6.812;2023-02-26T11:47:08;782.53;;;743.28;;
17197;SDS011;8715;51.010;6.812;2023-02-26T11:49:35;786.40;;;746.80;;
17197;SDS011;8715;51.010;6.812;2023-02-26T11:54:30;781.30;;;742.55;;
17197;SDS011;8715;51.010;6.812;2023-02-26T11:57:04;784.85;;;745.15;;
17197;SDS011;8715;51.010;6.812;2023-02-26T11:59:30;783.92;;;744.00;;
17197;SDS011;8715;51.010;6.812;2023-02-26T12:01:56;791.35;;;751.00;;
17197;SDS011;8715;51.010;6.812;2023-02-26T12:04:25;798.22;;;756.13;;
17197;SDS011;8715;51.010;6.812;2023-02-26T12:06:51;798.10;;;757.30;;
17197;SDS011;8715;51.010;6.812;2023-02-26T12:09:16;797.38;;;756.58;;
17197;SDS011;8715;51.010;6.812;2023-02-26T12:22:41;794.78;;;754.25;;
17197;SDS011;8715;51.010;6.812;2023-02-26T12:25:16;815.15;;;772.53;;
17197;SDS011;8715;51.010;6.812;2023-02-26T12:28:20;805.25;;;763.28;;
17197;SDS011;8715;51.010;6.812;2023-02-26T12:35:17;801.93;;;760.07;;
17197;SDS011;8715;51.010;6.812;2023-02-26T12:37:59;797.00;;;755.85;;
17197;SDS011;8715;51.010;6.812;2023-02-26T12:51:00;799.38;;;757.33;;
17197;SDS011;8715;51.010;6.812;2023-02-26T12:56:16;798.88;;;757.13;;
17197;SDS011;8715;51.010;6.812;2023-02-26T13:06:44;802.50;;;760.07;;
17197;SDS011;8715;51.010;6.812;2023-02-26T13:09:25;802.47;;;759.78;;
17197;SDS011;8715;51.010;6.812;2023-02-26T13:14:51;805.10;;;762.33;;
17197;SDS011;8715;51.010;6.812;2023-02-26T13:17:42;816.40;;;772.25;;
17197;SDS011;8715;51.010;6.812;2023-02-26T13:20:40;829.85;;;777.88;;
17197;SDS011;8715;51.010;6.812;2023-02-26T13:23:02;864.22;;;796.25;;
17197;SDS011;8715;51.010;6.812;2023-02-26T13:25:46;857.85;;;792.40;;
17197;SDS011;8715;51.010;6.812;2023-02-26T13:31:16;844.60;;;789.03;;
17197;SDS011;8715;51.010;6.812;2023-02-26T13:33:44;832.00;;;781.78;;
17197;SDS011;8715;51.010;6.812;2023-02-26T13:36:10;826.35;;;777.25;;
17197;SDS011;8715;51.010;6.812;2023-02-26T13:49:14;853.60;;;795.88;;
17197;SDS011;8715;51.010;6.812;2023-02-26T13:51:42;693.67;;;393.67;;
17197;SDS011;8715;51.010;6.812;2023-02-26T13:54:27;338.33;;;123.40;;
17197;SDS011;8715;51.010;6.812;2023-02-26T13:56:54;806.28;;;755.45;;
17197;SDS011;8715;51.010;6.812;2023-02-26T13:59:32;812.03;;;768.70;;
17197;SDS011;8715;51.010;6.812;2023-02-26T14:04:54;810.65;;;766.25;;
17197;SDS011;8715;51.010;6.812;2023-02-26T14:08:08;820.83;;;774.03;;
17197;SDS011;8715;51.010;6.812;2023-02-26T14:10:16;849.08;;;794.90;;
17197;SDS011;8715;51.010;6.812;2023-02-26T14:12:46;854.78;;;800.03;;
17197;SDS011;8715;51.010;6.812;2023-02-26T14:15:27;835.60;;;783.97;;
17197;SDS011;8715;51.010;6.812;2023-02-26T14:17:59;834.17;;;781.10;;
17197;SDS011;8715;51.010;6.812;2023-02-26T14:20:25;840.38;;;787.70;;
17197;SDS011;8715;51.010;6.812;2023-02-26T14:23:24;834.35;;;784.83;;
17197;SDS011;8715;51.010;6.812;2023-02-26T14:25:38;823.70;;;776.53;;
17197;SDS011;8715;51.010;6.812;2023-02-26T14:30:49;817.83;;;772.75;;
17197;SDS011;8715;51.010;6.812;2023-02-26T14:33:16;809.30;;;765.50;;
17197;SDS011;8715;51.010;6.812;2023-02-26T14:35:43;821.25;;;774.70;;
17197;SDS011;8715;51.010;6.812;2023-02-26T14:41:04;828.47;;;781.20;;
17197;SDS011;8715;51.010;6.812;2023-02-26T14:43:43;814.22;;;769.13;;
17197;SDS011;8715;51.010;6.812;2023-02-26T14:46:08;821.08;;;775.20;;
17197;SDS011;8715;51.010;6.812;2023-02-26T14:48:35;810.80;;;765.75;;
17197;SDS011;8715;51.010;6.812;2023-02-26T14:54:11;819.13;;;773.90;;
17197;SDS011;8715;51.010;6.812;2023-02-26T15:04:44;796.63;;;755.05;;
17197;SDS011;8715;51.010;6.812;2023-02-26T15:14:51;801.70;;;760.20;;
17197;SDS011;8715;51.010;6.812;2023-02-26T15:24:39;800.65;;;759.40;;
17197;SDS011;8715;51.010;6.812;2023-02-26T15:27:06;795.72;;;755.13;;
17197;SDS011;8715;51.010;6.812;2023-02-26T15:29:32;795.65;;;754.10;;
17197;SDS011;8715;51.010;6.812;2023-02-26T15:32:04;797.53;;;756.72;;
17197;SDS011;8715;51.010;6.812;2023-02-26T15:34:29;791.15;;;751.17;;
17197;SDS011;8715;51.010;6.812;2023-02-26T15:36:56;803.00;;;761.75;;
17197;SDS011;8715;51.010;6.812;2023-02-26T15:39:22;793.22;;;753.22;;
17197;SDS011;8715;51.010;6.812;2023-02-26T15:41:49;785.42;;;746.13;;
17197;SDS011;8715;51.010;6.812;2023-02-26T15:44:18;794.63;;;754.05;;
17197;SDS011;8715;51.010;6.812;2023-02-26T15:49:22;786.47;;;747.42;;
17197;SDS011;8715;51.010;6.812;2023-02-26T15:51:48;805.80;;;765.33;;
17197;SDS011;8715;51.010;6.812;2023-02-26T15:54:18;782.75;;;743.78;;
17197;SDS011;8715;51.010;6.812;2023-02-26T15:56:45;789.08;;;750.13;;
17197;SDS011;8715;51.010;6.812;2023-02-26T15:59:12;784.47;;;745.50;;
17197;SDS011;8715;51.010;6.812;2023-02-26T16:01:38;786.28;;;747.63;;
17197;SDS011;8715;51.010;6.812;2023-02-26T16:04:05;789.67;;;750.38;;
17197;SDS011;8715;51.010;6.812;2023-02-26T16:06:36;785.30;;;746.13;;
17197;SDS011;8715;51.010;6.812;2023-02-26T16:09:01;782.03;;;743.22;;
17197;SDS011;8715;51.010;6.812;2023-02-26T16:11:34;787.75;;;749.28;;
17197;SDS011;8715;51.010;6.812;2023-02-26T16:14:00;783.70;;;745.05;;
17197;SDS011;8715;51.010;6.812;2023-02-26T16:16:27;781.85;;;743.53;;
17197;SDS011;8715;51.010;6.812;2023-02-26T16:18:53;779.15;;;741.35;;
17197;SDS011;8715;51.010;6.812;2023-02-26T16:21:37;803.22;;;763.33;;
17197;SDS011;8715;51.010;6.812;2023-02-26T16:24:04;789.75;;;749.85;;
17197;SDS011;8715;51.010;6.812;2023-02-26T16:26:32;785.13;;;745.88;;
17197;SDS011;8715;51.010;6.812;2023-02-26T16:29:00;785.13;;;746.17;;
17197;SDS011;8715;51.010;6.812;2023-02-26T16:31:27;781.28;;;742.35;;
17197;SDS011;8715;51.010;6.812;2023-02-26T16:34:00;780.97;;;742.67;;
17197;SDS011;8715;51.010;6.812;2023-02-26T16:38:58;776.13;;;738.40;;
17197;SDS011;8715;51.010;6.812;2023-02-26T16:41:24;770.45;;;733.25;;
17197;SDS011;8715;51.010;6.812;2023-02-26T16:43:51;783.28;;;744.78;;
17197;SDS011;8715;51.010;6.812;2023-02-26T16:47:01;777.40;;;739.00;;
17197;SDS011;8715;51.010;6.812;2023-02-26T16:49:03;785.15;;;746.75;;
17197;SDS011;8715;51.010;6.812;2023-02-26T16:51:31;778.38;;;740.33;;
17197;SDS011;8715;51.010;6.812;2023-02-26T16:54:00;776.58;;;738.50;;
17197;SDS011;8715;51.010;6.812;2023-02-26T16:56:31;775.53;;;737.65;;
17197;SDS011;8715;51.010;6.812;2023-02-26T17:01:38;778.20;;;740.45;;
17197;SDS011;8715;51.010;6.812;2023-02-26T17:04:04;772.42;;;735.08;;
17197;SDS011;8715;51.010;6.812;2023-02-26T17:06:30;771.15;;;734.00;;
17197;SDS011;8715;51.010;6.812;2023-02-26T17:08:56;772.83;;;735.38;;
17197;SDS011;8715;51.010;6.812;2023-02-26T17:11:26;772.13;;;735.00;;
17197;SDS011;8715;51.010;6.812;2023-02-26T17:16:37;769.22;;;732.42;;